Time;durP1;ratioP1;P1;durP2;ratioP2;P2;SDS_P1;SDS_P2;PMS_P1;PMS_P2;Temp;Humidity;BMP_temperature;BMP_pressure;BME280_temperature;BME280_humidity;BME280_pressure;Samples;Min_cycle;Max_cycle;Signal;HPM_P1;HPM_P2
2023/10/31 00:01:31;;;;;;;1.98;0.40;;;12.00;99.90;;;13.52;68.71;96078.91;5030438;28;20393;-42
2023/10/31 00:03:59;;;;;;;1.05;0.50;;;12.00;99.90;;;13.55;68.91;96075.81;5031790;28;20064;-41
2023/10/31 00:06:26;;;;;;;0.35;0.35;;;12.00;99.90;;;13.51;69.03;96074.63;5031503;28;20064;-41
2023/10/31 00:08:54;;;;;;;0.47;0.30;;;11.90;99.90;;;13.54;68.85;96084.88;5031436;28;20053;-40
2023/10/31 00:11:22;;;;;;;3.22;0.60;;;11.90;99.90;;;13.33;68.93;96085.25;5031380;28;20050;-42
2023/10/31 00:13:49;;;;;;;1.30;0.43;;;11.90;99.90;;;13.23;69.13;96092.88;5031442;28;20048;-43
2023/10/31 00:16:17;;;;;;;0.43;0.43;;;11.90;99.90;;;13.28;68.70;96101.91;5031599;28;20076;-42
2023/10/31 00:18:45;;;;;;;0.55;0.50;;;11.90;99.90;;;13.34;68.72;96100.25;5030996;28;20053;-44
2023/10/31 00:21:12;;;;;;;0.43;0.30;;;11.90;99.90;;;13.45;68.38;96104.06;5031352;28;20049;-42
2023/10/31 00:23:47;;;;;;;0.30;0.30;;;11.90;99.90;;;13.21;67.84;96109.13;5031265;28;20056;-42
2023/10/31 00:26:15;;;;;;;0.77;0.52;;;11.70;99.90;;;13.26;67.94;96114.66;5013797;28;20053;-41
2023/10/31 00:28:49;;;;;;;0.35;0.32;;;11.70;99.90;;;13.19;67.75;96121.88;5029996;28;20038;-41
2023/10/31 00:31:17;;;;;;;1.15;0.50;;;11.60;99.90;;;13.22;67.60;96121.44;5031058;28;20056;-41
2023/10/31 00:33:45;;;;;;;2.25;0.75;;;11.60;99.90;;;13.18;67.74;96126.44;5013326;28;20389;-46
2023/10/31 00:36:13;;;;;;;0.40;0.40;;;11.60;99.90;;;13.03;67.92;96120.56;5031074;28;20041;-43
2023/10/31 00:38:41;;;;;;;0.90;0.50;;;11.50;99.90;;;13.02;67.77;96124.25;5029352;28;20050;-41
2023/10/31 00:41:08;;;;;;;0.55;0.55;;;11.50;99.90;;;12.79;67.09;96120.25;5029413;28;20552;-41
2023/10/31 00:43:36;;;;;;;0.68;0.57;;;11.50;98.30;;;12.86;67.22;96130.09;5029475;28;20528;-41
2023/10/31 00:46:04;;;;;;;0.47;0.40;;;11.40;99.90;;;12.61;67.50;96133.47;5029455;28;20058;-41
2023/10/31 00:48:36;;;;;;;2.30;0.82;;;11.30;99.10;;;12.51;67.75;96146.44;5029582;28;20041;-41
2023/10/31 00:51:04;;;;;;;0.50;0.50;;;11.20;99.90;;;12.61;67.08;96154.81;5029323;28;20053;-42
2023/10/31 00:53:32;;;;;;;2.70;0.43;;;11.20;97.60;;;12.56;66.49;96141.28;5030835;28;20065;-40
2023/10/31 00:56:02;;;;;;;2.90;0.75;;;11.20;96.70;;;12.56;66.46;96138.59;5030728;28;20060;-40
2023/10/31 00:58:30;;;;;;;0.60;0.60;;;11.20;96.90;;;12.66;66.23;96138.16;5012111;28;20076;-41
2023/10/31 01:00:58;;;;;;;2.50;0.52;;;11.20;97.40;;;12.56;66.04;96143.94;5030648;28;20058;-41
2023/10/31 01:03:26;;;;;;;1.33;0.90;;;11.20;96.90;;;12.62;65.75;96145.78;5029324;28;20055;-43
2023/10/31 01:05:54;;;;;;;0.88;0.55;;;11.30;96.20;;;12.47;65.59;96146.03;5022721;28;20048;-42
2023/10/31 01:08:21;;;;;;;1.42;1.02;;;11.10;94.50;;;12.53;65.91;96141.72;5029198;28;20425;-41
2023/10/31 01:10:49;;;;;;;0.57;0.43;;;11.10;95.10;;;12.24;66.19;96153.69;5028947;28;20052;-42
2023/10/31 01:13:16;;;;;;;0.90;0.55;;;11.00;95.40;;;12.41;65.94;96150.34;5029273;28;20060;-40
2023/10/31 01:15:45;;;;;;;0.60;0.60;;;11.00;97.20;;;12.43;65.89;96136.81;5029171;28;20047;-43
2023/10/31 01:18:13;;;;;;;0.63;0.57;;;11.00;95.80;;;12.44;65.50;96140.28;5029418;28;20054;-44
2023/10/31 01:20:41;;;;;;;1.05;0.60;;;11.00;96.20;;;12.49;65.54;96127.97;5030253;28;20054;-45
2023/10/31 01:23:09;;;;;;;0.40;0.38;;;10.90;96.80;;;12.57;65.13;96118.91;5030370;28;20420;-44
2023/10/31 01:25:36;;;;;;;2.10;0.68;;;10.90;97.00;;;12.50;64.91;96120.75;5030431;28;20417;-41
2023/10/31 01:28:04;;;;;;;0.85;0.63;;;10.90;96.90;;;12.53;64.86;96117.69;5029150;28;20053;-42
2023/10/31 01:30:32;;;;;;;0.60;0.60;;;10.90;96.30;;;12.55;64.82;96119.09;5028725;28;20053;-41
2023/10/31 01:32:59;;;;;;;2.53;1.00;;;10.90;95.60;;;12.51;64.95;96125.09;5030333;28;20132;-41
2023/10/31 01:35:27;;;;;;;0.88;0.60;;;10.80;96.20;;;12.54;64.75;96133.50;5029127;28;20041;-42
2023/10/31 01:37:55;;;;;;;2.28;0.73;;;10.80;96.50;;;12.47;64.97;96140.69;5028384;28;20061;-41
2023/10/31 01:40:23;;;;;;;0.47;0.40;;;10.80;95.70;;;12.37;64.84;96161.66;5028395;28;20053;-43
2023/10/31 01:42:50;;;;;;;1.60;0.77;;;10.80;94.50;;;12.33;64.57;96161.25;5028716;28;20049;-41
2023/10/31 01:45:18;;;;;;;2.77;0.80;;;10.80;94.50;;;12.37;64.69;96167.81;5029006;28;20426;-44
2023/10/31 01:47:48;;;;;;;1.10;0.57;;;10.80;94.80;;;12.30;64.74;96174.19;5028579;28;20497;-42
2023/10/31 01:50:18;;;;;;;0.68;0.50;;;10.80;93.30;;;12.39;64.56;96159.63;5028300;28;20057;-43
2023/10/31 01:52:46;;;;;;;1.13;0.65;;;10.80;92.90;;;12.43;64.31;96176.84;5028966;28;20417;-43
2023/10/31 01:55:15;;;;;;;2.03;0.65;;;10.90;92.80;;;12.38;64.58;96180.13;5027834;28;20460;-42
2023/10/31 01:57:45;;;;;;;0.95;0.70;;;10.90;93.80;;;12.47;64.32;96177.25;5030070;28;20421;-42
2023/10/31 02:00:15;;;;;;;1.75;0.80;;;10.90;94.30;;;12.46;64.43;96175.59;5012097;28;20038;-41
2023/10/31 02:02:42;;;;;;;1.55;0.73;;;10.90;94.60;;;12.49;64.46;96184.00;5029827;28;20120;-43
2023/10/31 02:05:10;;;;;;;1.73;0.70;;;10.90;94.40;;;12.49;64.54;96196.53;5028568;28;20046;-41
2023/10/31 02:07:38;;;;;;;0.52;0.40;;;10.90;94.50;;;12.48;64.20;96198.38;5028738;28;20049;-42
2023/10/31 02:10:06;;;;;;;1.20;0.50;;;10.90;93.30;;;12.51;64.11;96202.50;5033501;28;20041;-42
2023/10/31 02:12:35;;;;;;;0.77;0.60;;;10.90;93.50;;;12.61;64.08;96211.69;5034597;28;20045;-42
2023/10/31 02:15:05;;;;;;;2.47;0.98;;;10.90;93.40;;;12.71;63.82;96210.44;5024977;28;20049;-45
2023/10/31 02:17:32;;;;;;;1.50;0.40;;;11.10;93.80;;;12.76;63.82;96211.47;5015883;28;20045;-41
2023/10/31 02:20:00;;;;;;;0.63;0.55;;;11.10;92.70;;;12.80;63.69;96203.84;5033415;28;20049;-42
2023/10/31 02:22:28;;;;;;;1.83;0.70;;;11.10;92.20;;;12.76;63.43;96205.31;5033788;28;20045;-44
2023/10/31 02:24:56;;;;;;;0.90;0.60;;;11.10;91.30;;;12.80;63.49;96203.84;5031970;28;20049;-44
2023/10/31 02:27:23;;;;;;;1.67;0.90;;;11.10;92.90;;;12.82;63.38;96206.31;5032030;28;20056;-42
2023/10/31 02:29:51;;;;;;;0.95;0.50;;;11.10;92.80;;;12.81;63.13;96216.16;5033032;28;20042;-44
2023/10/31 02:32:19;;;;;;;1.60;0.70;;;11.10;92.70;;;12.78;63.44;96213.94;5032631;28;20049;-41
2023/10/31 02:34:47;;;;;;;0.75;0.63;;;11.00;93.00;;;12.72;63.30;96212.91;5031626;28;20072;-42
2023/10/31 02:37:15;;;;;;;1.77;0.60;;;11.00;92.60;;;12.68;63.23;96216.19;5032216;28;20045;-43
2023/10/31 02:39:43;;;;;;;1.50;0.70;;;11.00;92.70;;;12.63;63.32;96224.84;5031256;28;20072;-41
2023/10/31 02:42:10;;;;;;;1.35;0.50;;;10.90;92.20;;;12.59;63.48;96224.44;5031577;28;20056;-43
2023/10/31 02:44:38;;;;;;;3.10;0.80;;;10.90;92.40;;;12.64;63.25;96226.50;5031817;28;20531;-42
2023/10/31 02:47:06;;;;;;;0.60;0.60;;;11.00;92.90;;;12.60;63.48;96230.59;5032335;28;20049;-44
2023/10/31 02:49:33;;;;;;;0.88;0.60;;;10.90;92.90;;;12.54;63.47;96234.09;5033100;28;20425;-44
2023/10/31 02:52:01;;;;;;;0.63;0.52;;;10.90;93.80;;;12.54;63.51;96229.59;5031864;28;20045;-42
2023/10/31 02:54:29;;;;;;;1.48;0.65;;;10.80;93.70;;;12.54;63.45;96234.94;5031464;28;20041;-41
2023/10/31 02:56:57;;;;;;;0.75;0.60;;;10.80;94.30;;;12.57;63.73;96241.69;5031560;28;20049;-43
2023/10/31 02:59:24;;;;;;;1.38;0.60;;;10.80;94.10;;;12.51;63.63;96229.19;5033073;28;20507;-41
2023/10/31 03:01:53;;;;;;;3.92;0.70;;;10.80;93.80;;;12.52;63.69;96230.81;5032609;28;20052;-41
2023/10/31 03:04:21;;;;;;;0.73;0.60;;;10.80;93.10;;;12.56;63.17;96229.38;5015139;28;20428;-43
2023/10/31 03:06:49;;;;;;;0.98;0.60;;;10.80;92.00;;;12.57;63.25;96236.34;5031427;28;20124;-43
2023/10/31 03:09:17;;;;;;;2.13;0.70;;;10.90;92.60;;;12.61;63.02;96250.94;5031679;28;20049;-45
2023/10/31 03:11:44;;;;;;;0.40;0.40;;;10.90;91.70;;;12.65;62.92;96249.47;5031025;28;20520;-41
2023/10/31 03:14:12;;;;;;;1.15;0.50;;;11.00;91.80;;;12.72;63.00;96260.16;5032692;28;20053;-43
2023/10/31 03:16:40;;;;;;;0.82;0.60;;;11.00;91.80;;;12.70;63.00;96265.72;5032627;28;20052;-42
2023/10/31 03:19:08;;;;;;;1.02;0.70;;;11.00;91.20;;;12.67;62.84;96259.97;5032509;28;20033;-42
2023/10/31 03:21:35;;;;;;;0.45;0.32;;;11.00;90.30;;;12.64;62.68;96268.38;5013809;28;20068;-42
2023/10/31 03:24:03;;;;;;;0.73;0.70;;;11.00;89.60;;;12.66;62.33;96264.47;5030911;28;20037;-41
2023/10/31 03:26:31;;;;;;;0.82;0.77;;;11.00;90.10;;;12.71;62.46;96264.66;5032601;28;20412;-41
2023/10/31 03:28:59;;;;;;;1.13;0.60;;;11.10;89.90;;;12.76;62.37;96267.53;5030874;28;20421;-41
2023/10/31 03:31:26;;;;;;;2.88;0.60;;;11.10;89.20;;;12.76;62.27;96264.88;5030878;28;20060;-44
2023/10/31 03:33:54;;;;;;;0.82;0.47;;;11.10;89.40;;;12.71;61.71;96272.66;5031835;28;20358;-41
2023/10/31 03:36:22;;;;;;;0.60;0.40;;;11.00;86.90;;;12.73;61.90;96267.13;5031018;28;20072;-41
2023/10/31 03:38:50;;;;;;;1.15;0.70;;;11.00;88.30;;;12.59;61.86;96274.34;5030841;28;20501;-44
2023/10/31 03:41:18;;;;;;;0.85;0.60;;;11.00;87.40;;;12.60;61.96;96276.81;5032087;28;20045;-44
2023/10/31 03:43:45;;;;;;;1.38;0.60;;;11.00;86.40;;;12.54;61.60;96269.63;5030810;28;20068;-41
2023/10/31 03:46:13;;;;;;;1.55;0.70;;;11.00;86.40;;;12.59;61.60;96272.50;5030953;28;20057;-41
2023/10/31 03:48:42;;;;;;;3.50;0.70;;;11.10;86.00;;;12.45;61.51;96273.53;5031899;28;20045;-43
2023/10/31 03:51:09;;;;;;;1.45;0.50;;;11.00;85.90;;;12.56;61.66;96272.91;5030469;28;20050;-42
2023/10/31 03:53:37;;;;;;;1.23;0.70;;;11.00;85.30;;;12.50;61.17;96280.91;5030945;28;20037;-43
2023/10/31 03:56:05;;;;;;;2.25;0.65;;;11.00;85.30;;;12.45;61.05;96273.53;5030470;28;20493;-44
2023/10/31 03:58:32;;;;;;;0.50;0.50;;;11.00;84.70;;;12.46;61.32;96269.81;5029889;28;20045;-41
2023/10/31 04:01:00;;;;;;;1.33;0.52;;;11.00;85.20;;;12.54;60.83;96268.78;5030415;28;20060;-43
2023/10/31 04:03:28;;;;;;;0.68;0.63;;;11.00;85.40;;;12.49;60.72;96280.09;5030603;28;20492;-42
2023/10/31 04:05:56;;;;;;;1.73;1.00;;;10.90;85.10;;;12.48;60.90;96270.44;5031692;28;20049;-42
2023/10/31 04:08:23;;;;;;;0.90;0.70;;;10.90;85.60;;;12.37;60.69;96276.44;5030058;28;20072;-44
2023/10/31 04:10:51;;;;;;;0.65;0.65;;;10.80;84.30;;;12.40;60.93;96289.34;5030941;28;20037;-45
2023/10/31 04:13:19;;;;;;;0.77;0.47;;;10.90;84.90;;;12.46;60.82;96275.16;5030092;28;20041;-44
2023/10/31 04:15:46;;;;;;;1.08;0.68;;;10.80;85.00;;;12.50;60.59;96273.72;5031571;28;20105;-45
2023/10/31 04:18:14;;;;;;;1.17;0.60;;;10.90;84.30;;;12.45;60.54;96273.53;5030146;28;20042;-47
2023/10/31 04:20:42;;;;;;;1.90;0.82;;;10.80;84.20;;;12.46;60.88;96277.84;5031166;28;20068;-45
2023/10/31 04:23:11;;;;;;;2.75;1.05;;;10.80;85.80;;;12.48;60.58;96277.63;5031453;28;20540;-43
2023/10/31 04:25:39;;;;;;;7.38;0.98;;;10.80;85.40;;;12.44;60.32;96276.41;5031541;28;20045;-43
2023/10/31 04:28:07;;;;;;;1.02;0.60;;;10.80;84.40;;;12.38;60.32;96267.38;5031051;28;20425;-43
2023/10/31 04:30:35;;;;;;;0.80;0.47;;;10.80;84.50;;;12.40;60.43;96276.81;5031158;28;20037;-43
2023/10/31 04:33:02;;;;;;;0.65;0.45;;;10.80;85.40;;;12.37;60.47;96285.25;5030261;28;20045;-45
2023/10/31 04:35:30;;;;;;;0.80;0.80;;;10.80;85.50;;;12.35;60.47;96297.97;5031198;28;20414;-42
2023/10/31 04:37:58;;;;;;;1.40;1.30;;;10.70;85.20;;;12.35;60.35;96299.84;5031021;28;20072;-44
2023/10/31 04:40:26;;;;;;;0.68;0.50;;;10.70;85.20;;;12.37;60.37;96295.09;5030458;28;20052;-42
2023/10/31 04:42:54;;;;;;;0.70;0.60;;;10.70;85.10;;;12.28;60.15;96299.81;5031192;28;20043;-47
2023/10/31 04:45:22;;;;;;;0.73;0.60;;;10.70;84.70;;;12.26;60.15;96299.19;5029627;28;20041;-46
2023/10/31 04:47:50;;;;;;;1.27;0.60;;;10.70;84.80;;;12.16;60.35;96296.13;5030753;28;20048;-44
2023/10/31 04:50:17;;;;;;;1.83;0.68;;;10.60;84.30;;;12.19;60.13;96301.03;5029477;28;20045;-43
2023/10/31 04:52:45;;;;;;;0.65;0.57;;;10.60;83.50;;;12.20;60.07;96308.84;5030991;28;20413;-43
2023/10/31 04:55:13;;;;;;;1.70;0.60;;;10.70;83.90;;;12.20;59.84;96311.50;5028369;28;20072;-43
2023/10/31 04:57:44;;;;;;;1.65;0.60;;;10.70;84.00;;;12.13;59.79;96312.53;5030921;28;20049;-42
2023/10/31 05:00:12;;;;;;;0.98;0.95;;;10.60;83.70;;;12.13;60.13;96302.66;5029253;28;20049;-41
2023/10/31 05:02:40;;;;;;;1.40;0.70;;;10.60;84.00;;;12.13;60.10;96301.84;5030884;28;20410;-43
2023/10/31 05:05:08;;;;;;;1.60;0.80;;;10.60;83.50;;;12.09;59.88;96300.63;5029126;28;20049;-43
2023/10/31 05:07:36;;;;;;;1.33;0.50;;;10.50;84.80;;;12.12;60.00;96303.69;5030562;28;20040;-47
2023/10/31 05:10:04;;;;;;;1.07;0.87;;;10.50;84.60;;;12.13;60.04;96299.19;5030235;28;20417;-43
2023/10/31 05:12:31;;;;;;;1.03;0.80;;;10.50;85.20;;;12.12;59.87;96298.38;5030656;28;20057;-42
2023/10/31 05:14:59;;;;;;;1.73;0.73;;;10.50;84.10;;;12.12;59.87;96308.22;5030379;28;20420;-46
2023/10/31 05:17:27;;;;;;;1.83;0.73;;;10.50;84.80;;;12.11;60.20;96317.25;5030056;28;20053;-45
2023/10/31 05:19:54;;;;;;;0.77;0.60;;;10.50;85.00;;;12.10;60.15;96326.28;5030033;28;20068;-44
2023/10/31 05:22:22;;;;;;;1.43;0.63;;;10.40;84.90;;;12.02;60.06;96321.97;5030777;28;20083;-41
2023/10/31 05:24:52;;;;;;;0.60;0.50;;;10.40;84.00;;;12.08;60.08;96320.31;5030123;28;20053;-43
2023/10/31 05:27:20;;;;;;;0.50;0.50;;;10.40;84.80;;;12.02;59.68;96332.63;5028934;28;20478;-42
2023/10/31 05:29:48;;;;;;;1.17;0.40;;;10.40;83.20;;;12.08;59.82;96320.31;5028718;28;20417;-41
2023/10/31 05:32:15;;;;;;;1.30;0.45;;;10.40;84.70;;;12.00;59.58;96329.34;5030286;28;20108;-46
2023/10/31 05:34:43;;;;;;;1.45;0.57;;;10.40;83.30;;;11.92;59.67;96317.00;5030452;28;20385;-42
2023/10/31 05:37:11;;;;;;;0.90;0.60;;;10.40;83.60;;;11.95;59.48;96329.94;5030071;28;20053;-46
2023/10/31 05:39:38;;;;;;;0.90;0.63;;;10.40;83.10;;;11.94;59.98;96330.97;5028957;28;20046;-44
2023/10/31 05:42:06;;;;;;;3.38;0.70;;;10.40;83.90;;;11.97;59.76;96327.88;5029866;28;20413;-42
2023/10/31 05:44:34;;;;;;;0.60;0.50;;;10.40;83.00;;;11.95;60.13;96329.94;5032395;28;20049;-43
2023/10/31 05:47:02;;;;;;;0.90;0.70;;;10.40;84.20;;;11.98;59.69;96326.88;5034260;28;20049;-42
2023/10/31 05:49:30;;;;;;;1.40;0.75;;;10.40;83.80;;;11.94;59.84;96338.13;5034257;28;20064;-41
2023/10/31 05:51:58;;;;;;;0.80;0.80;;;10.40;83.60;;;11.92;59.74;96333.03;5033835;28;20044;-43
2023/10/31 05:54:26;;;;;;;0.70;0.60;;;10.40;83.80;;;11.95;59.79;96340.59;5033949;28;20050;-43
2023/10/31 05:56:53;;;;;;;1.00;0.60;;;10.40;83.90;;;11.91;59.60;96330.53;5034291;28;20390;-43
2023/10/31 05:59:21;;;;;;;0.90;0.80;;;10.40;83.50;;;11.91;59.58;96328.69;5033290;28;20049;-43
2023/10/31 06:01:50;;;;;;;0.80;0.70;;;10.30;83.40;;;11.93;59.32;96339.97;5033880;28;20052;-46
2023/10/31 06:04:18;;;;;;;0.73;0.73;;;10.30;83.40;;;11.95;59.52;96345.13;5033841;28;20037;-44
2023/10/31 06:06:45;;;;;;;2.10;0.60;;;10.30;83.90;;;11.92;59.58;96346.34;5032663;28;20045;-47
2023/10/31 06:09:14;;;;;;;1.00;0.73;;;10.30;83.60;;;11.95;59.25;96345.13;5032798;28;20416;-42
2023/10/31 06:11:45;;;;;;;0.97;0.73;;;10.30;82.80;;;11.88;59.29;96342.38;5033787;28;20386;-42
2023/10/31 06:14:13;;;;;;;1.27;0.70;;;10.30;83.30;;;11.87;59.41;96359.44;5032268;28;20152;-44
2023/10/31 06:16:41;;;;;;;0.57;0.50;;;10.20;83.60;;;11.76;59.33;96358.16;5033838;28;20512;-44
2023/10/31 06:19:10;;;;;;;1.70;0.40;;;10.20;83.50;;;11.74;59.23;96368.19;5015980;28;20497;-43
2023/10/31 06:21:37;;;;;;;1.17;0.63;;;10.20;82.40;;;11.74;59.50;96364.72;5033348;28;20042;-43
2023/10/31 06:24:05;;;;;;;1.80;0.70;;;10.20;82.60;;;11.83;58.95;96369.66;5033393;28;20472;-42
2023/10/31 06:26:33;;;;;;;0.87;0.60;;;10.30;81.70;;;11.79;58.90;96373.75;5033753;28;20041;-44
2023/10/31 06:29:01;;;;;;;0.70;0.60;;;10.30;81.70;;;11.85;58.66;96374.81;5032105;28;20045;-43
2023/10/31 06:31:48;;;;;;;1.75;0.65;;;10.30;81.00;;;11.88;58.66;96386.91;5031984;28;20049;-42
2023/10/31 06:34:16;;;;;;;1.10;0.60;;;10.40;79.00;;;11.86;58.77;96388.94;5033354;28;20037;-42
2023/10/31 06:36:44;;;;;;;2.08;0.50;;;10.40;79.90;;;11.88;58.49;96386.91;5032787;28;20037;-41
2023/10/31 06:39:11;;;;;;;1.23;0.70;;;10.40;79.80;;;11.85;58.57;96384.66;5032072;28;20065;-46
2023/10/31 06:41:41;;;;;;;3.08;0.70;;;10.40;80.00;;;11.90;58.73;96385.69;5033171;28;20037;-44
2023/10/31 06:44:08;;;;;;;1.67;0.43;;;10.50;80.10;;;11.91;58.40;96379.38;5015593;28;20057;-42
2023/10/31 06:46:36;;;;;;;0.88;0.50;;;10.50;79.90;;;12.00;58.24;96383.50;5033119;28;20417;-42
2023/10/31 06:49:04;;;;;;;0.68;0.60;;;10.60;80.00;;;12.09;58.37;96392.13;5031627;28;20049;-42
2023/10/31 06:51:31;;;;;;;0.98;0.60;;;10.60;79.80;;;12.17;58.44;96399.13;5032550;28;20094;-43
2023/10/31 06:53:59;;;;;;;1.13;1.02;;;10.70;80.60;;;12.16;58.23;96405.50;5032490;28;20045;-47
2023/10/31 06:56:28;;;;;;;0.68;0.43;;;10.70;79.60;;;12.19;58.02;96410.41;5032238;28;20078;-43
2023/10/31 06:58:56;;;;;;;0.65;0.38;;;10.70;79.30;;;12.19;58.13;96421.94;5032155;28;20041;-43
2023/10/31 07:01:24;;;;;;;0.95;0.55;;;10.60;79.80;;;12.25;57.93;96427.47;5032427;28;20053;-47
2023/10/31 07:03:51;;;;;;;0.40;0.40;;;10.70;79.20;;;12.34;58.05;96436.94;5031566;28;20048;-46
2023/10/31 07:06:21;;;;;;;1.08;0.60;;;10.70;79.90;;;12.32;57.46;96431.81;5032709;28;20421;-47
2023/10/31 07:08:48;;;;;;;1.50;1.13;;;10.80;78.40;;;12.37;57.55;96440.03;5032730;28;20071;-43
2023/10/31 07:11:16;;;;;;;0.80;0.80;;;10.80;79.40;;;12.40;57.88;96446.81;5032373;28;20041;-43
2023/10/31 07:13:44;;;;;;;1.77;1.05;;;10.80;78.90;;;12.46;57.57;96447.84;5032546;28;20501;-43
2023/10/31 07:16:12;;;;;;;0.63;0.45;;;10.90;78.30;;;12.48;57.42;96449.28;5032722;28;20486;-44
2023/10/31 07:18:40;;;;;;;1.35;0.65;;;10.90;78.20;;;12.48;57.33;96449.28;5032828;28;20056;-47
2023/10/31 07:21:07;;;;;;;1.03;0.70;;;10.80;77.70;;;12.54;57.41;96459.19;5032448;28;20049;-43
2023/10/31 07:23:35;;;;;;;1.83;0.88;;;10.90;79.00;;;12.62;57.35;96452.81;5032867;28;20041;-49
2023/10/31 07:26:05;;;;;;;0.95;0.65;;;11.00;78.40;;;12.65;56.99;96452.41;5032941;28;20110;-43
2023/10/31 07:28:33;;;;;;;0.70;0.60;;;11.00;77.80;;;12.69;57.11;96455.50;5031515;28;20507;-44
2023/10/31 07:31:01;;;;;;;0.57;0.45;;;11.00;77.60;;;12.71;56.85;96466.78;5032707;28;20068;-47
2023/10/31 07:33:28;;;;;;;0.73;0.65;;;11.00;78.10;;;12.74;57.06;96469.06;5031118;28;20521;-44
2023/10/31 07:35:56;;;;;;;1.58;0.80;;;11.10;78.20;;;12.71;56.61;96472.13;5032844;28;20060;-43
2023/10/31 07:38:24;;;;;;;0.85;0.50;;;11.10;77.60;;;12.77;56.79;96474.78;5032251;28;20045;-43
2023/10/31 07:40:51;;;;;;;1.73;0.80;;;11.10;78.30;;;12.81;57.01;96477.88;5032053;28;20042;-46
2023/10/31 07:43:19;;;;;;;0.98;0.80;;;11.10;78.20;;;12.87;57.09;96481.59;5032655;28;20512;-43
2023/10/31 07:45:47;;;;;;;1.73;0.80;;;11.20;77.80;;;12.89;56.76;96480.38;5032834;28;20046;-43
2023/10/31 07:48:14;;;;;;;4.25;1.17;;;11.20;78.00;;;12.89;56.96;96482.22;5032434;28;20049;-43
2023/10/31 07:50:42;;;;;;;1.52;1.10;;;11.20;78.50;;;12.90;56.98;96468.66;5031967;28;20489;-44
2023/10/31 07:53:09;;;;;;;4.87;2.50;;;11.30;77.60;;;12.91;56.86;96474.81;5031529;28;20053;-44
2023/10/31 07:55:37;;;;;;;4.40;2.70;;;11.30;78.10;;;12.90;57.01;96487.34;5029218;28;20393;-42
2023/10/31 07:58:05;;;;;;;3.35;1.27;;;11.30;78.40;;;12.93;56.88;96486.97;5032292;28;20045;-42
2023/10/31 08:00:34;;;;;;;1.77;0.90;;;11.40;77.00;;;12.93;57.04;96488.78;5024135;28;20037;-44
2023/10/31 08:03:02;;;;;;;2.65;1.70;;;11.40;78.40;;;12.87;57.18;96487.78;5032485;28;20041;-42
2023/10/31 08:05:30;;;;;;;3.55;1.83;;;11.30;78.40;;;12.92;57.37;96489.81;5031949;28;20539;-41
2023/10/31 08:07:58;;;;;;;4.03;2.13;;;11.30;78.80;;;12.94;57.08;96491.25;5032215;28;20049;-42
2023/10/31 08:10:26;;;;;;;4.68;1.92;;;11.40;78.40;;;12.93;57.44;96489.63;5031841;28;20049;-45
2023/10/31 08:12:53;;;;;;;3.63;2.33;;;11.40;78.50;;;13.00;57.24;96497.63;5032523;28;20045;-42
2023/10/31 08:15:21;;;;;;;2.42;1.40;;;11.40;78.90;;;13.03;57.22;96499.06;5031966;28;20412;-45
2023/10/31 08:17:49;;;;;;;2.72;0.88;;;11.40;78.80;;;13.02;57.04;96503.59;5031870;28;20049;-44
2023/10/31 08:20:16;;;;;;;1.63;1.33;;;11.50;77.40;;;13.03;57.10;96509.75;5031596;28;20086;-46
2023/10/31 08:22:45;;;;;;;3.03;1.23;;;11.50;77.90;;;13.05;57.02;96515.75;5030831;28;20063;-45
2023/10/31 08:25:13;;;;;;;1.42;0.82;;;11.50;78.20;;;13.07;57.03;96519.03;5032162;28;20082;-43
2023/10/31 08:27:40;;;;;;;1.70;0.88;;;11.60;77.40;;;13.06;56.94;96522.72;5029972;28;20068;-43
2023/10/31 08:30:09;;;;;;;2.08;0.88;;;11.50;77.80;;;13.07;57.06;96522.53;5031526;28;20654;-44
2023/10/31 08:32:36;;;;;;;1.60;1.00;;;11.50;78.30;;;13.07;57.10;96519.03;5023641;28;20049;-42
2023/10/31 08:35:04;;;;;;;1.27;0.90;;;11.50;78.40;;;13.09;57.12;96528.47;5031352;28;20045;-45
2023/10/31 08:37:32;;;;;;;2.00;0.70;;;11.50;78.40;;;13.03;57.37;96523.94;5031865;28;20049;-46
2023/10/31 08:40:03;;;;;;;3.78;0.80;;;11.50;79.00;;;13.07;57.29;96527.03;5031146;28;20045;-47
2023/10/31 08:42:30;;;;;;;2.90;0.88;;;11.50;79.30;;;13.14;57.23;96526.03;5031410;28;20053;-44
2023/10/31 08:44:58;;;;;;;4.57;1.20;;;11.60;79.20;;;13.16;57.16;96539.16;5030963;28;20045;-43
2023/10/31 08:47:28;;;;;;;3.08;1.85;;;11.60;78.20;;;13.18;57.14;96547.78;5029176;28;20440;-45
2023/10/31 08:49:55;;;;;;;3.35;0.80;;;11.60;78.60;;;13.20;56.87;96535.88;5031082;28;20052;-43
2023/10/31 08:52:23;;;;;;;2.30;0.93;;;11.60;77.80;;;13.27;56.92;96546.56;5030899;28;20038;-44
2023/10/31 08:54:51;;;;;;;1.77;1.00;;;11.70;77.20;;;13.27;56.54;96541.22;5031350;28;20089;-46
2023/10/31 08:57:18;;;;;;;1.25;0.82;;;11.70;77.00;;;13.29;56.40;96543.69;5031136;28;20054;-46
2023/10/31 08:59:46;;;;;;;3.03;1.25;;;11.70;77.50;;;13.32;56.77;96551.34;5031388;28;20049;-44
2023/10/31 09:02:13;;;;;;;4.82;1.25;;;11.70;77.80;;;13.28;56.75;96553.56;5029563;28;20057;-44
2023/10/31 09:04:41;;;;;;;1.40;0.73;;;11.70;77.40;;;13.23;56.47;96542.66;5029751;28;20041;-45
2023/10/31 09:07:09;;;;;;;3.33;1.38;;;11.70;76.40;;;13.24;56.28;96549.66;5030639;28;20060;-45
2023/10/31 09:09:36;;;;;;;2.92;1.35;;;11.70;75.10;;;13.24;56.39;96546.16;5030978;28;20501;-43
2023/10/31 09:12:04;;;;;;;1.83;0.70;;;11.70;77.00;;;13.34;56.45;96541.28;5030644;28;20049;-44
2023/10/31 09:14:32;;;;;;;2.50;0.85;;;11.80;77.30;;;13.35;56.13;96549.06;5030846;28;20060;-43
2023/10/31 09:17:00;;;;;;;2.03;0.80;;;11.80;75.20;;;13.42;56.21;96538.38;5030911;28;20115;-48
2023/10/31 09:19:28;;;;;;;1.40;0.77;;;11.90;76.10;;;13.39;55.77;96534.25;5030735;28;20048;-48
2023/10/31 09:21:55;;;;;;;2.33;1.02;;;11.90;74.60;;;13.38;55.65;96539.84;5030916;28;20052;-43
2023/10/31 09:24:23;;;;;;;2.22;1.20;;;11.90;75.90;;;13.41;55.61;96544.75;5030791;28;20050;-42
2023/10/31 09:26:51;;;;;;;6.05;1.17;;;11.90;75.00;;;13.39;55.89;96539.59;5030771;28;20048;-44
2023/10/31 09:29:19;;;;;;;2.40;1.02;;;11.90;74.80;;;13.42;55.83;96542.91;5030751;28;20497;-44
2023/10/31 09:31:56;;;;;;;3.95;1.10;;;12.00;75.10;;;13.29;56.16;96541.84;5030622;28;20061;-44
2023/10/31 09:34:24;;;;;;;3.60;1.00;;;12.00;75.30;;;13.41;55.89;96541.25;5030533;28;20041;-43
2023/10/31 09:36:52;;;;;;;2.40;1.20;;;12.10;74.20;;;13.48;56.03;96545.59;5030164;28;20052;-43
2023/10/31 09:39:20;;;;;;;2.30;0.82;;;12.20;75.50;;;13.34;56.14;96551.97;5030659;28;20045;-44
2023/10/31 09:41:47;;;;;;;2.55;1.10;;;12.20;74.60;;;13.41;55.93;96557.31;5030458;28;20049;-43
2023/10/31 09:44:19;;;;;;;3.78;1.10;;;12.20;73.50;;;13.35;55.96;96545.59;5030640;28;20041;-43
2023/10/31 09:46:48;;;;;;;2.13;0.90;;;12.20;74.30;;;13.42;56.04;96551.75;5030214;28;20041;-43
2023/10/31 09:49:16;;;;;;;1.95;0.68;;;12.30;74.50;;;13.63;56.24;96558.75;5030688;28;20049;-43
2023/10/31 09:51:46;;;;;;;1.88;1.27;;;12.40;74.50;;;13.69;56.21;96555.25;5021386;28;20052;-46
2023/10/31 09:54:17;;;;;;;5.25;1.35;;;12.50;75.00;;;13.64;56.31;96556.88;5029420;28;20049;-43
2023/10/31 09:56:44;;;;;;;1.67;1.05;;;12.50;75.10;;;13.70;55.79;96558.72;5022679;28;20113;-44
2023/10/31 09:59:15;;;;;;;3.50;1.58;;;12.50;74.30;;;13.57;55.43;96552.38;5030566;28;20045;-43
2023/10/31 10:01:43;;;;;;;3.97;1.20;;;12.40;72.90;;;13.70;55.67;96545.34;5030191;28;20045;-47
2023/10/31 10:04:11;;;;;;;5.03;1.20;;;12.50;74.60;;;13.56;55.86;96552.56;5030806;28;20050;-42
2023/10/31 10:06:58;;;;;;;4.28;1.77;;;12.30;74.40;;;13.59;55.42;96550.31;5029930;28;20167;-44
2023/10/31 10:09:27;;;;;;;3.55;1.30;;;12.40;73.50;;;13.55;55.96;96546.41;5030948;28;20068;-45
2023/10/31 10:11:56;;;;;;;4.20;1.33;;;12.40;74.20;;;13.47;56.08;96543.91;5030849;28;20193;-43
2023/10/31 10:14:26;;;;;;;4.03;1.20;;;12.40;73.40;;;13.73;55.93;96542.28;5030872;28;20053;-43
2023/10/31 10:16:55;;;;;;;4.88;2.20;;;12.50;74.10;;;13.86;56.01;96549.44;5029208;28;20041;-44
2023/10/31 10:19:23;;;;;;;3.95;1.10;;;12.60;74.50;;;13.90;55.33;96545.31;5029153;28;20049;-48
2023/10/31 10:21:57;;;;;;;4.20;1.25;;;12.70;73.20;;;13.93;55.02;96545.72;5028726;28;20049;-43
2023/10/31 10:24:25;;;;;;;2.28;0.82;;;12.70;72.10;;;13.99;55.10;96555.59;5030357;28;20042;-43